sensor_id;sensor_type;location;lat;lon;timestamp;P1;durP1;ratioP1;P2;durP2;ratioP2
21274;SDS011;36472;52.170;20.884;2023-05-10T00:00:08;13.30;;;7.47;;
21274;SDS011;36472;52.170;20.884;2023-05-10T00:02:59;11.13;;;6.57;;
21274;SDS011;36472;52.170;20.884;2023-05-10T00:05:28;10.48;;;6.70;;
21274;SDS011;36472;52.170;20.884;2023-05-10T00:07:58;9.15;;;6.35;;
21274;SDS011;36472;52.170;20.884;2023-05-10T00:10:27;9.23;;;6.63;;
21274;SDS011;36472;52.170;20.884;2023-05-10T00:12:55;9.98;;;6.75;;
21274;SDS011;36472;52.170;20.884;2023-05-10T00:15:24;10.65;;;7.13;;
21274;SDS011;36472;52.170;20.884;2023-05-10T00:17:53;11.82;;;7.18;;
21274;SDS011;36472;52.170;20.884;2023-05-10T00:20:22;10.45;;;6.40;;
21274;SDS011;36472;52.170;20.884;2023-05-10T00:22:51;9.55;;;6.57;;
21274;SDS011;36472;52.170;20.884;2023-05-10T00:25:21;10.15;;;6.93;;
21274;SDS011;36472;52.170;20.884;2023-05-10T00:27:50;10.50;;;5.95;;
21274;SDS011;36472;52.170;20.884;2023-05-10T00:30:19;9.25;;;6.40;;
21274;SDS011;36472;52.170;20.884;2023-05-10T00:32:48;7.88;;;6.15;;
21274;SDS011;36472;52.170;20.884;2023-05-10T00:35:18;10.95;;;6.30;;
21274;SDS011;36472;52.170;20.884;2023-05-10T00:37:48;9.52;;;5.63;;
21274;SDS011;36472;52.170;20.884;2023-05-10T00:40:17;9.02;;;6.05;;
21274;SDS011;36472;52.170;20.884;2023-05-10T00:42:51;8.55;;;5.38;;
21274;SDS011;36472;52.170;20.884;2023-05-10T00:45:20;9.77;;;5.72;;
21274;SDS011;36472;52.170;20.884;2023-05-10T00:47:49;7.72;;;5.22;;
21274;SDS011;36472;52.170;20.884;2023-05-10T00:50:22;9.07;;;5.47;;
21274;SDS011;36472;52.170;20.884;2023-05-10T00:52:51;7.47;;;5.53;;
21274;SDS011;36472;52.170;20.884;2023-05-10T00:55:20;7.80;;;5.63;;
21274;SDS011;36472;52.170;20.884;2023-05-10T00:57:51;6.88;;;5.10;;
21274;SDS011;36472;52.170;20.884;2023-05-10T01:00:21;6.82;;;5.60;;
21274;SDS011;36472;52.170;20.884;2023-05-10T01:02:50;7.47;;;4.82;;
21274;SDS011;36472;52.170;20.884;2023-05-10T01:05:21;8.32;;;5.13;;
21274;SDS011;36472;52.170;20.884;2023-05-10T01:07:50;10.88;;;5.82;;
21274;SDS011;36472;52.170;20.884;2023-05-10T01:10:19;7.07;;;4.97;;
21274;SDS011;36472;52.170;20.884;2023-05-10T01:12:49;8.52;;;5.50;;
21274;SDS011;36472;52.170;20.884;2023-05-10T01:15:20;8.20;;;5.45;;
21274;SDS011;36472;52.170;20.884;2023-05-10T01:17:50;6.30;;;5.22;;
21274;SDS011;36472;52.170;20.884;2023-05-10T01:20:20;9.43;;;5.57;;
21274;SDS011;36472;52.170;20.884;2023-05-10T01:26:13;8.52;;;5.60;;
21274;SDS011;36472;52.170;20.884;2023-05-10T01:32:31;6.10;;;4.88;;
21274;SDS011;36472;52.170;20.884;2023-05-10T01:35:10;7.65;;;5.55;;
21274;SDS011;36472;52.170;20.884;2023-05-10T01:37:48;9.52;;;5.35;;
21274;SDS011;36472;52.170;20.884;2023-05-10T01:40:30;7.15;;;5.07;;
21274;SDS011;36472;52.170;20.884;2023-05-10T01:43:08;7.18;;;5.13;;
21274;SDS011;36472;52.170;20.884;2023-05-10T01:45:49;9.20;;;5.43;;
21274;SDS011;36472;52.170;20.884;2023-05-10T01:48:32;6.80;;;4.95;;
21274;SDS011;36472;52.170;20.884;2023-05-10T01:51:01;5.90;;;4.65;;
21274;SDS011;36472;52.170;20.884;2023-05-10T01:53:32;7.65;;;5.38;;
21274;SDS011;36472;52.170;20.884;2023-05-10T01:56:05;7.30;;;5.03;;
21274;SDS011;36472;52.170;20.884;2023-05-10T01:58:37;7.25;;;5.38;;
21274;SDS011;36472;52.170;20.884;2023-05-10T02:01:13;9.07;;;5.68;;
21274;SDS011;36472;52.170;20.884;2023-05-10T02:03:45;6.82;;;5.13;;
21274;SDS011;36472;52.170;20.884;2023-05-10T02:06:18;8.88;;;5.43;;
21274;SDS011;36472;52.170;20.884;2023-05-10T02:08:51;9.45;;;5.20;;
21274;SDS011;36472;52.170;20.884;2023-05-10T02:11:21;10.80;;;5.60;;
21274;SDS011;36472;52.170;20.884;2023-05-10T02:13:51;8.60;;;5.47;;
21274;SDS011;36472;52.170;20.884;2023-05-10T02:16:27;7.03;;;5.55;;
21274;SDS011;36472;52.170;20.884;2023-05-10T02:19:00;8.02;;;5.65;;
21274;SDS011;36472;52.170;20.884;2023-05-10T02:21:30;7.13;;;5.60;;
21274;SDS011;36472;52.170;20.884;2023-05-10T02:24:01;8.98;;;5.50;;
21274;SDS011;36472;52.170;20.884;2023-05-10T02:26:33;7.65;;;5.20;;
21274;SDS011;36472;52.170;20.884;2023-05-10T02:29:04;8.52;;;5.80;;
21274;SDS011;36472;52.170;20.884;2023-05-10T02:31:35;8.10;;;5.63;;
21274;SDS011;36472;52.170;20.884;2023-05-10T02:34:07;8.98;;;5.90;;
21274;SDS011;36472;52.170;20.884;2023-05-10T02:36:37;9.50;;;5.38;;
21274;SDS011;36472;52.170;20.884;2023-05-10T02:39:09;8.55;;;5.88;;
21274;SDS011;36472;52.170;20.884;2023-05-10T02:41:42;8.18;;;5.57;;
21274;SDS011;36472;52.170;20.884;2023-05-10T02:44:15;7.50;;;5.47;;
21274;SDS011;36472;52.170;20.884;2023-05-10T02:46:46;9.45;;;5.50;;
21274;SDS011;36472;52.170;20.884;2023-05-10T02:49:17;8.88;;;6.50;;
21274;SDS011;36472;52.170;20.884;2023-05-10T02:51:49;10.27;;;6.38;;
21274;SDS011;36472;52.170;20.884;2023-05-10T02:54:29;8.57;;;6.20;;
21274;SDS011;36472;52.170;20.884;2023-05-10T02:57:04;6.95;;;5.10;;
21274;SDS011;36472;52.170;20.884;2023-05-10T02:59:37;6.65;;;5.30;;
21274;SDS011;36472;52.170;20.884;2023-05-10T03:02:06;8.73;;;6.05;;
21274;SDS011;36472;52.170;20.884;2023-05-10T03:04:38;7.90;;;5.40;;
21274;SDS011;36472;52.170;20.884;2023-05-10T03:07:07;9.63;;;5.43;;
21274;SDS011;36472;52.170;20.884;2023-05-10T03:09:37;9.13;;;6.10;;
21274;SDS011;36472;52.170;20.884;2023-05-10T03:12:07;9.70;;;6.50;;
21274;SDS011;36472;52.170;20.884;2023-05-10T03:14:49;10.23;;;5.45;;
21274;SDS011;36472;52.170;20.884;2023-05-10T03:17:29;8.60;;;5.50;;
21274;SDS011;36472;52.170;20.884;2023-05-10T03:20:10;6.63;;;5.80;;
21274;SDS011;36472;52.170;20.884;2023-05-10T03:22:45;10.50;;;5.72;;
21274;SDS011;36472;52.170;20.884;2023-05-10T03:25:19;7.25;;;5.57;;
21274;SDS011;36472;52.170;20.884;2023-05-10T03:27:52;8.70;;;5.40;;
21274;SDS011;36472;52.170;20.884;2023-05-10T03:30:23;8.68;;;5.95;;
21274;SDS011;36472;52.170;20.884;2023-05-10T03:32:53;7.38;;;5.43;;
21274;SDS011;36472;52.170;20.884;2023-05-10T03:35:23;11.52;;;5.68;;
21274;SDS011;36472;52.170;20.884;2023-05-10T03:37:52;9.50;;;6.10;;
21274;SDS011;36472;52.170;20.884;2023-05-10T03:40:21;7.97;;;5.75;;
21274;SDS011;36472;52.170;20.884;2023-05-10T03:42:51;9.20;;;5.75;;
21274;SDS011;36472;52.170;20.884;2023-05-10T03:45:19;7.85;;;5.75;;
21274;SDS011;36472;52.170;20.884;2023-05-10T03:47:48;12.00;;;5.97;;
21274;SDS011;36472;52.170;20.884;2023-05-10T03:50:18;10.55;;;5.45;;
21274;SDS011;36472;52.170;20.884;2023-05-10T03:52:48;7.55;;;5.70;;
21274;SDS011;36472;52.170;20.884;2023-05-10T03:55:20;10.95;;;6.28;;
21274;SDS011;36472;52.170;20.884;2023-05-10T03:57:50;8.55;;;5.75;;
21274;SDS011;36472;52.170;20.884;2023-05-10T04:00:22;9.55;;;6.18;;
21274;SDS011;36472;52.170;20.884;2023-05-10T04:02:53;10.65;;;6.55;;
21274;SDS011;36472;52.170;20.884;2023-05-10T04:05:22;11.05;;;5.93;;
21274;SDS011;36472;52.170;20.884;2023-05-10T04:07:53;9.10;;;5.75;;
21274;SDS011;36472;52.170;20.884;2023-05-10T04:10:22;8.35;;;5.50;;
21274;SDS011;36472;52.170;20.884;2023-05-10T04:12:51;7.93;;;6.05;;
21274;SDS011;36472;52.170;20.884;2023-05-10T04:15:20;12.32;;;5.57;;
21274;SDS011;36472;52.170;20.884;2023-05-10T04:17:49;9.43;;;6.20;;
21274;SDS011;36472;52.170;20.884;2023-05-10T04:20:18;8.63;;;5.22;;
21274;SDS011;36472;52.170;20.884;2023-05-10T04:22:47;8.25;;;5.55;;
21274;SDS011;36472;52.170;20.884;2023-05-10T04:25:17;8.13;;;6.00;;
21274;SDS011;36472;52.170;20.884;2023-05-10T04:27:46;9.82;;;6.25;;
21274;SDS011;36472;52.170;20.884;2023-05-10T04:30:15;7.97;;;5.57;;
21274;SDS011;36472;52.170;20.884;2023-05-10T04:32:44;9.82;;;5.85;;
21274;SDS011;36472;52.170;20.884;2023-05-10T04:35:13;10.13;;;5.55;;
21274;SDS011;36472;52.170;20.884;2023-05-10T04:37:42;6.95;;;5.30;;
21274;SDS011;36472;52.170;20.884;2023-05-10T04:40:11;9.02;;;5.75;;
21274;SDS011;36472;52.170;20.884;2023-05-10T04:42:42;8.40;;;5.30;;
21274;SDS011;36472;52.170;20.884;2023-05-10T04:45:12;9.07;;;5.70;;
21274;SDS011;36472;52.170;20.884;2023-05-10T04:47:42;7.50;;;5.80;;
21274;SDS011;36472;52.170;20.884;2023-05-10T04:50:11;9.00;;;6.10;;
21274;SDS011;36472;52.170;20.884;2023-05-10T04:52:40;10.63;;;5.57;;
21274;SDS011;36472;52.170;20.884;2023-05-10T04:55:09;7.57;;;5.57;;
21274;SDS011;36472;52.170;20.884;2023-05-10T04:57:37;9.98;;;5.55;;
21274;SDS011;36472;52.170;20.884;2023-05-10T05:00:08;7.40;;;5.50;;
21274;SDS011;36472;52.170;20.884;2023-05-10T05:02:41;10.40;;;5.50;;
21274;SDS011;36472;52.170;20.884;2023-05-10T05:05:12;8.45;;;5.03;;
21274;SDS011;36472;52.170;20.884;2023-05-10T05:07:41;7.10;;;5.18;;
21274;SDS011;36472;52.170;20.884;2023-05-10T05:10:10;6.50;;;5.30;;
21274;SDS011;36472;52.170;20.884;2023-05-10T05:12:39;9.68;;;5.50;;
21274;SDS011;36472;52.170;20.884;2023-05-10T05:15:10;12.68;;;5.32;;
21274;SDS011;36472;52.170;20.884;2023-05-10T05:17:39;9.55;;;5.55;;
21274;SDS011;36472;52.170;20.884;2023-05-10T05:20:08;8.05;;;5.75;;
21274;SDS011;36472;52.170;20.884;2023-05-10T05:22:38;8.48;;;5.30;;
21274;SDS011;36472;52.170;20.884;2023-05-10T05:25:07;6.97;;;5.38;;
21274;SDS011;36472;52.170;20.884;2023-05-10T05:27:36;8.32;;;4.70;;
21274;SDS011;36472;52.170;20.884;2023-05-10T05:30:06;6.20;;;5.13;;
21274;SDS011;36472;52.170;20.884;2023-05-10T05:32:37;9.10;;;5.50;;
21274;SDS011;36472;52.170;20.884;2023-05-10T05:35:07;7.35;;;4.85;;
21274;SDS011;36472;52.170;20.884;2023-05-10T05:37:36;9.10;;;5.43;;
21274;SDS011;36472;52.170;20.884;2023-05-10T05:40:05;10.20;;;5.82;;
21274;SDS011;36472;52.170;20.884;2023-05-10T05:42:35;7.53;;;4.75;;
21274;SDS011;36472;52.170;20.884;2023-05-10T05:45:05;9.13;;;5.00;;
21274;SDS011;36472;52.170;20.884;2023-05-10T05:47:41;10.77;;;5.57;;
21274;SDS011;36472;52.170;20.884;2023-05-10T05:50:10;8.20;;;4.60;;
21274;SDS011;36472;52.170;20.884;2023-05-10T05:52:39;6.97;;;5.28;;
21274;SDS011;36472;52.170;20.884;2023-05-10T05:55:08;6.65;;;4.90;;
21274;SDS011;36472;52.170;20.884;2023-05-10T05:57:37;4.43;;;3.95;;
21274;SDS011;36472;52.170;20.884;2023-05-10T06:00:06;8.52;;;5.03;;
21274;SDS011;36472;52.170;20.884;2023-05-10T06:02:40;7.28;;;4.07;;
21274;SDS011;36472;52.170;20.884;2023-05-10T06:05:09;7.07;;;4.20;;
21274;SDS011;36472;52.170;20.884;2023-05-10T06:07:38;8.98;;;4.20;;
21274;SDS011;36472;52.170;20.884;2023-05-10T06:10:08;12.13;;;4.38;;
21274;SDS011;36472;52.170;20.884;2023-05-10T06:12:38;8.20;;;4.10;;
21274;SDS011;36472;52.170;20.884;2023-05-10T06:15:07;6.65;;;4.03;;
21274;SDS011;36472;52.170;20.884;2023-05-10T06:17:38;6.38;;;3.78;;
21274;SDS011;36472;52.170;20.884;2023-05-10T06:20:09;7.00;;;3.80;;
21274;SDS011;36472;52.170;20.884;2023-05-10T06:22:40;7.00;;;4.13;;
21274;SDS011;36472;52.170;20.884;2023-05-10T06:25:09;5.65;;;3.50;;
21274;SDS011;36472;52.170;20.884;2023-05-10T06:27:39;5.75;;;3.75;;
21274;SDS011;36472;52.170;20.884;2023-05-10T06:30:08;4.47;;;3.20;;
21274;SDS011;36472;52.170;20.884;2023-05-10T06:32:40;7.07;;;4.10;;
21274;SDS011;36472;52.170;20.884;2023-05-10T06:35:11;6.57;;;3.75;;
21274;SDS011;36472;52.170;20.884;2023-05-10T06:37:41;5.57;;;3.42;;
21274;SDS011;36472;52.170;20.884;2023-05-10T06:40:11;5.63;;;3.63;;
21274;SDS011;36472;52.170;20.884;2023-05-10T06:42:40;6.57;;;3.80;;
21274;SDS011;36472;52.170;20.884;2023-05-10T06:45:10;5.22;;;3.20;;
21274;SDS011;36472;52.170;20.884;2023-05-10T06:47:39;4.63;;;2.70;;
21274;SDS011;36472;52.170;20.884;2023-05-10T06:50:09;3.15;;;2.85;;
21274;SDS011;36472;52.170;20.884;2023-05-10T06:52:40;6.38;;;3.00;;
21274;SDS011;36472;52.170;20.884;2023-05-10T06:55:10;6.00;;;3.15;;
21274;SDS011;36472;52.170;20.884;2023-05-10T06:57:38;6.88;;;3.22;;
21274;SDS011;36472;52.170;20.884;2023-05-10T07:00:07;6.95;;;3.00;;
21274;SDS011;36472;52.170;20.884;2023-05-10T07:02:37;5.65;;;2.70;;
21274;SDS011;36472;52.170;20.884;2023-05-10T07:05:06;4.55;;;2.22;;
21274;SDS011;36472;52.170;20.884;2023-05-10T07:07:38;3.88;;;2.90;;
21274;SDS011;36472;52.170;20.884;2023-05-10T07:10:07;8.15;;;3.75;;
21274;SDS011;36472;52.170;20.884;2023-05-10T07:12:37;4.47;;;2.75;;
21274;SDS011;36472;52.170;20.884;2023-05-10T07:15:07;5.53;;;2.72;;
21274;SDS011;36472;52.170;20.884;2023-05-10T07:17:37;5.93;;;2.45;;
21274;SDS011;36472;52.170;20.884;2023-05-10T07:20:08;5.85;;;2.80;;
21274;SDS011;36472;52.170;20.884;2023-05-10T07:22:40;5.93;;;2.53;;
21274;SDS011;36472;52.170;20.884;2023-05-10T07:25:09;4.90;;;2.50;;
21274;SDS011;36472;52.170;20.884;2023-05-10T07:27:38;4.90;;;2.78;;
21274;SDS011;36472;52.170;20.884;2023-05-10T07:30:07;4.50;;;2.40;;
21274;SDS011;36472;52.170;20.884;2023-05-10T07:32:37;4.18;;;2.22;;
21274;SDS011;36472;52.170;20.884;2023-05-10T07:35:08;5.07;;;2.40;;
21274;SDS011;36472;52.170;20.884;2023-05-10T07:37:37;7.43;;;2.47;;
21274;SDS011;36472;52.170;20.884;2023-05-10T07:40:08;3.75;;;2.33;;
21274;SDS011;36472;52.170;20.884;2023-05-10T07:42:37;5.75;;;2.30;;
21274;SDS011;36472;52.170;20.884;2023-05-10T07:45:07;5.35;;;3.10;;
21274;SDS011;36472;52.170;20.884;2023-05-10T07:47:37;5.70;;;2.42;;
21274;SDS011;36472;52.170;20.884;2023-05-10T07:50:07;3.15;;;1.95;;
21274;SDS011;36472;52.170;20.884;2023-05-10T07:52:36;2.65;;;1.90;;
21274;SDS011;36472;52.170;20.884;2023-05-10T07:55:07;3.15;;;1.63;;
21274;SDS011;36472;52.170;20.884;2023-05-10T07:57:37;6.53;;;2.25;;
21274;SDS011;36472;52.170;20.884;2023-05-10T08:00:07;5.32;;;2.40;;
21274;SDS011;36472;52.170;20.884;2023-05-10T08:02:40;4.30;;;2.70;;
21274;SDS011;36472;52.170;20.884;2023-05-10T08:05:09;3.20;;;2.00;;
21274;SDS011;36472;52.170;20.884;2023-05-10T08:07:38;3.47;;;1.90;;
21274;SDS011;36472;52.170;20.884;2023-05-10T08:10:09;2.20;;;1.90;;
21274;SDS011;36472;52.170;20.884;2023-05-10T08:12:39;4.55;;;2.05;;
21274;SDS011;36472;52.170;20.884;2023-05-10T08:15:08;5.53;;;1.95;;
21274;SDS011;36472;52.170;20.884;2023-05-10T08:17:38;3.97;;;2.08;;
21274;SDS011;36472;52.170;20.884;2023-05-10T08:20:07;4.65;;;2.20;;
21274;SDS011;36472;52.170;20.884;2023-05-10T08:22:36;4.72;;;2.10;;
21274;SDS011;36472;52.170;20.884;2023-05-10T08:25:05;3.50;;;2.17;;
21274;SDS011;36472;52.170;20.884;2023-05-10T08:27:36;2.95;;;1.95;;
21274;SDS011;36472;52.170;20.884;2023-05-10T08:30:06;3.83;;;2.42;;
21274;SDS011;36472;52.170;20.884;2023-05-10T08:32:36;5.05;;;2.58;;
21274;SDS011;36472;52.170;20.884;2023-05-10T08:35:05;2.65;;;2.42;;
21274;SDS011;36472;52.170;20.884;2023-05-10T08:37:35;3.15;;;2.00;;
21274;SDS011;36472;52.170;20.884;2023-05-10T08:40:04;5.45;;;2.40;;
21274;SDS011;36472;52.170;20.884;2023-05-10T08:42:34;3.38;;;2.50;;
21274;SDS011;36472;52.170;20.884;2023-05-10T08:45:11;3.85;;;2.30;;
21274;SDS011;36472;52.170;20.884;2023-05-10T08:47:41;3.97;;;2.30;;
21274;SDS011;36472;52.170;20.884;2023-05-10T08:50:11;4.32;;;2.60;;
21274;SDS011;36472;52.170;20.884;2023-05-10T08:52:41;4.53;;;2.70;;
21274;SDS011;36472;52.170;20.884;2023-05-10T08:55:10;3.65;;;2.40;;
21274;SDS011;36472;52.170;20.884;2023-05-10T08:57:41;3.63;;;2.08;;
21274;SDS011;36472;52.170;20.884;2023-05-10T09:00:10;6.43;;;2.88;;
21274;SDS011;36472;52.170;20.884;2023-05-10T09:02:41;5.32;;;2.38;;
21274;SDS011;36472;52.170;20.884;2023-05-10T09:05:12;5.22;;;2.50;;
21274;SDS011;36472;52.170;20.884;2023-05-10T09:07:43;3.55;;;2.38;;
21274;SDS011;36472;52.170;20.884;2023-05-10T09:10:12;4.45;;;2.30;;
21274;SDS011;36472;52.170;20.884;2023-05-10T09:12:45;6.38;;;2.05;;
21274;SDS011;36472;52.170;20.884;2023-05-10T09:15:15;5.75;;;2.22;;
21274;SDS011;36472;52.170;20.884;2023-05-10T09:17:46;3.30;;;2.38;;
21274;SDS011;36472;52.170;20.884;2023-05-10T09:20:16;4.30;;;2.55;;
21274;SDS011;36472;52.170;20.884;2023-05-10T09:22:45;5.00;;;2.72;;
21274;SDS011;36472;52.170;20.884;2023-05-10T09:25:15;3.08;;;2.03;;
21274;SDS011;36472;52.170;20.884;2023-05-10T09:27:47;3.83;;;2.35;;
21274;SDS011;36472;52.170;20.884;2023-05-10T09:30:17;3.80;;;2.35;;
21274;SDS011;36472;52.170;20.884;2023-05-10T09:32:53;3.60;;;2.17;;
21274;SDS011;36472;52.170;20.884;2023-05-10T09:35:24;4.30;;;2.50;;
21274;SDS011;36472;52.170;20.884;2023-05-10T09:37:56;5.03;;;2.20;;
21274;SDS011;36472;52.170;20.884;2023-05-10T09:40:29;4.90;;;2.97;;
21274;SDS011;36472;52.170;20.884;2023-05-10T09:43:00;2.78;;;2.50;;
21274;SDS011;36472;52.170;20.884;2023-05-10T09:45:33;3.63;;;2.03;;
21274;SDS011;36472;52.170;20.884;2023-05-10T09:48:05;4.68;;;2.70;;
21274;SDS011;36472;52.170;20.884;2023-05-10T09:50:34;5.05;;;2.30;;
21274;SDS011;36472;52.170;20.884;2023-05-10T09:53:03;4.72;;;2.70;;
21274;SDS011;36472;52.170;20.884;2023-05-10T09:55:39;2.90;;;2.25;;
21274;SDS011;36472;52.170;20.884;2023-05-10T09:58:13;4.78;;;2.40;;
21274;SDS011;36472;52.170;20.884;2023-05-10T10:00:43;5.32;;;2.28;;
21274;SDS011;36472;52.170;20.884;2023-05-10T10:03:15;4.57;;;2.55;;
21274;SDS011;36472;52.170;20.884;2023-05-10T10:05:46;3.45;;;2.67;;
21274;SDS011;36472;52.170;20.884;2023-05-10T10:08:17;5.38;;;2.80;;
21274;SDS011;36472;52.170;20.884;2023-05-10T10:10:46;4.88;;;2.75;;
21274;SDS011;36472;52.170;20.884;2023-05-10T10:13:19;5.13;;;2.60;;
21274;SDS011;36472;52.170;20.884;2023-05-10T10:15:48;3.47;;;2.35;;
21274;SDS011;36472;52.170;20.884;2023-05-10T10:18:19;4.20;;;2.40;;
21274;SDS011;36472;52.170;20.884;2023-05-10T10:20:53;3.00;;;2.50;;
21274;SDS011;36472;52.170;20.884;2023-05-10T10:23:24;5.30;;;2.85;;
21274;SDS011;36472;52.170;20.884;2023-05-10T10:25:54;2.92;;;2.17;;
21274;SDS011;36472;52.170;20.884;2023-05-10T10:28:26;2.80;;;2.20;;
21274;SDS011;36472;52.170;20.884;2023-05-10T10:31:13;4.13;;;1.95;;
21274;SDS011;36472;52.170;20.884;2023-05-10T10:33:56;10.10;;;2.42;;
21274;SDS011;36472;52.170;20.884;2023-05-10T10:36:33;4.55;;;2.15;;
21274;SDS011;36472;52.170;20.884;2023-05-10T10:39:10;3.60;;;2.10;;
21274;SDS011;36472;52.170;20.884;2023-05-10T10:41:40;3.80;;;2.08;;
21274;SDS011;36472;52.170;20.884;2023-05-10T10:44:27;4.03;;;2.25;;
21274;SDS011;36472;52.170;20.884;2023-05-10T10:47:06;4.35;;;2.10;;
21274;SDS011;36472;52.170;20.884;2023-05-10T10:50:02;3.88;;;2.00;;
21274;SDS011;36472;52.170;20.884;2023-05-10T10:52:33;4.80;;;2.20;;
21274;SDS011;36472;52.170;20.884;2023-05-10T10:55:05;3.13;;;2.30;;
21274;SDS011;36472;52.170;20.884;2023-05-10T10:57:46;5.35;;;2.38;;
21274;SDS011;36472;52.170;20.884;2023-05-10T11:00:21;4.90;;;2.30;;
21274;SDS011;36472;52.170;20.884;2023-05-10T11:02:58;3.72;;;2.50;;
21274;SDS011;36472;52.170;20.884;2023-05-10T11:05:35;4.35;;;2.50;;
21274;SDS011;36472;52.170;20.884;2023-05-10T11:08:08;5.57;;;2.80;;
21274;SDS011;36472;52.170;20.884;2023-05-10T11:10:51;3.67;;;2.35;;
21274;SDS011;36472;52.170;20.884;2023-05-10T11:13:31;4.10;;;2.40;;
21274;SDS011;36472;52.170;20.884;2023-05-10T11:16:11;4.70;;;2.20;;
21274;SDS011;36472;52.170;20.884;2023-05-10T11:18:53;3.30;;;2.47;;
21274;SDS011;36472;52.170;20.884;2023-05-10T11:21:26;4.10;;;2.35;;
21274;SDS011;36472;52.170;20.884;2023-05-10T11:23:55;3.47;;;2.67;;
21274;SDS011;36472;52.170;20.884;2023-05-10T11:26:29;3.72;;;2.25;;
21274;SDS011;36472;52.170;20.884;2023-05-10T11:29:00;4.13;;;2.20;;
21274;SDS011;36472;52.170;20.884;2023-05-10T11:31:32;4.53;;;2.00;;
21274;SDS011;36472;52.170;20.884;2023-05-10T11:34:02;4.15;;;2.00;;
21274;SDS011;36472;52.170;20.884;2023-05-10T11:36:32;4.03;;;2.00;;
21274;SDS011;36472;52.170;20.884;2023-05-10T11:39:03;7.07;;;2.20;;
21274;SDS011;36472;52.170;20.884;2023-05-10T11:41:33;3.20;;;2.08;;
21274;SDS011;36472;52.170;20.884;2023-05-10T11:44:02;3.05;;;2.03;;
21274;SDS011;36472;52.170;20.884;2023-05-10T11:46:33;3.88;;;2.22;;
21274;SDS011;36472;52.170;20.884;2023-05-10T11:49:01;5.18;;;2.17;;
21274;SDS011;36472;52.170;20.884;2023-05-10T11:51:33;3.05;;;2.20;;
21274;SDS011;36472;52.170;20.884;2023-05-10T11:54:05;5.25;;;2.33;;
21274;SDS011;36472;52.170;20.884;2023-05-10T11:56:36;2.28;;;2.00;;
21274;SDS011;36472;52.170;20.884;2023-05-10T11:59:06;2.90;;;2.40;;
21274;SDS011;36472;52.170;20.884;2023-05-10T12:01:37;3.38;;;2.25;;
21274;SDS011;36472;52.170;20.884;2023-05-10T12:04:06;6.30;;;2.20;;
21274;SDS011;36472;52.170;20.884;2023-05-10T12:06:37;3.38;;;2.10;;
21274;SDS011;36472;52.170;20.884;2023-05-10T12:09:09;2.58;;;2.05;;
21274;SDS011;36472;52.170;20.884;2023-05-10T12:11:39;5.25;;;2.33;;
21274;SDS011;36472;52.170;20.884;2023-05-10T12:14:10;4.05;;;2.30;;
21274;SDS011;36472;52.170;20.884;2023-05-10T12:16:40;2.75;;;1.98;;
21274;SDS011;36472;52.170;20.884;2023-05-10T12:19:11;3.00;;;2.10;;
21274;SDS011;36472;52.170;20.884;2023-05-10T12:21:46;2.63;;;2.00;;
21274;SDS011;36472;52.170;20.884;2023-05-10T12:24:15;3.63;;;2.20;;
21274;SDS011;36472;52.170;20.884;2023-05-10T12:26:44;4.47;;;2.30;;
21274;SDS011;36472;52.170;20.884;2023-05-10T12:29:33;4.57;;;1.92;;
21274;SDS011;36472;52.170;20.884;2023-05-10T12:32:03;3.00;;;2.08;;
21274;SDS011;36472;52.170;20.884;2023-05-10T12:34:32;4.15;;;2.40;;
21274;SDS011;36472;52.170;20.884;2023-05-10T12:37:05;6.45;;;2.55;;
21274;SDS011;36472;52.170;20.884;2023-05-10T12:39:38;3.72;;;2.20;;
21274;SDS011;36472;52.170;20.884;2023-05-10T12:42:09;3.13;;;2.10;;
21274;SDS011;36472;52.170;20.884;2023-05-10T12:44:38;4.03;;;2.30;;
21274;SDS011;36472;52.170;20.884;2023-05-10T12:47:09;4.18;;;1.92;;
21274;SDS011;36472;52.170;20.884;2023-05-10T12:49:38;4.93;;;2.40;;
21274;SDS011;36472;52.170;20.884;2023-05-10T12:52:07;6.03;;;2.25;;
21274;SDS011;36472;52.170;20.884;2023-05-10T12:54:35;5.53;;;2.40;;
21274;SDS011;36472;52.170;20.884;2023-05-10T12:57:04;3.85;;;2.33;;
21274;SDS011;36472;52.170;20.884;2023-05-10T12:59:33;4.25;;;2.20;;
21274;SDS011;36472;52.170;20.884;2023-05-10T13:02:04;4.25;;;2.33;;
21274;SDS011;36472;52.170;20.884;2023-05-10T13:04:35;4.93;;;2.38;;
21274;SDS011;36472;52.170;20.884;2023-05-10T13:07:06;5.03;;;2.28;;
21274;SDS011;36472;52.170;20.884;2023-05-10T13:09:36;6.00;;;2.38;;
21274;SDS011;36472;52.170;20.884;2023-05-10T13:12:05;4.97;;;2.20;;
21274;SDS011;36472;52.170;20.884;2023-05-10T13:14:36;6.50;;;2.40;;
21274;SDS011;36472;52.170;20.884;2023-05-10T13:17:07;2.65;;;2.08;;
21274;SDS011;36472;52.170;20.884;2023-05-10T13:19:38;4.65;;;2.40;;
21274;SDS011;36472;52.170;20.884;2023-05-10T13:22:08;4.78;;;2.55;;
21274;SDS011;36472;52.170;20.884;2023-05-10T13:24:37;5.30;;;2.35;;
21274;SDS011;36472;52.170;20.884;2023-05-10T13:27:07;2.53;;;2.17;;
21274;SDS011;36472;52.170;20.884;2023-05-10T13:29:36;7.03;;;2.10;;
21274;SDS011;36472;52.170;20.884;2023-05-10T13:32:06;6.95;;;2.60;;
21274;SDS011;36472;52.170;20.884;2023-05-10T13:34:35;3.15;;;2.10;;
21274;SDS011;36472;52.170;20.884;2023-05-10T13:37:07;4.13;;;2.13;;
21274;SDS011;36472;52.170;20.884;2023-05-10T13:39:36;6.78;;;2.10;;
21274;SDS011;36472;52.170;20.884;2023-05-10T13:42:06;2.95;;;2.20;;
21274;SDS011;36472;52.170;20.884;2023-05-10T13:44:35;4.45;;;2.33;;
21274;SDS011;36472;52.170;20.884;2023-05-10T13:47:05;2.97;;;2.20;;
21274;SDS011;36472;52.170;20.884;2023-05-10T13:49:34;3.33;;;2.10;;
21274;SDS011;36472;52.170;20.884;2023-05-10T13:52:05;5.93;;;2.03;;
21274;SDS011;36472;52.170;20.884;2023-05-10T13:54:34;3.42;;;2.33;;
21274;SDS011;36472;52.170;20.884;2023-05-10T13:57:05;3.45;;;2.08;;
21274;SDS011;36472;52.170;20.884;2023-05-10T13:59:34;5.45;;;2.10;;
21274;SDS011;36472;52.170;20.884;2023-05-10T14:02:04;3.55;;;2.10;;
21274;SDS011;36472;52.170;20.884;2023-05-10T14:04:34;3.92;;;1.98;;
21274;SDS011;36472;52.170;20.884;2023-05-10T14:07:05;3.78;;;2.20;;
21274;SDS011;36472;52.170;20.884;2023-05-10T14:09:35;3.83;;;2.13;;
21274;SDS011;36472;52.170;20.884;2023-05-10T14:12:05;3.95;;;2.20;;
21274;SDS011;36472;52.170;20.884;2023-05-10T14:14:34;4.25;;;2.15;;
21274;SDS011;36472;52.170;20.884;2023-05-10T14:17:04;4.47;;;2.25;;
21274;SDS011;36472;52.170;20.884;2023-05-10T14:19:37;3.05;;;2.25;;
21274;SDS011;36472;52.170;20.884;2023-05-10T14:22:08;2.67;;;2.05;;
21274;SDS011;36472;52.170;20.884;2023-05-10T14:24:37;3.70;;;2.40;;
21274;SDS011;36472;52.170;20.884;2023-05-10T14:27:06;3.80;;;1.98;;
21274;SDS011;36472;52.170;20.884;2023-05-10T14:29:35;3.60;;;2.17;;
21274;SDS011;36472;52.170;20.884;2023-05-10T14:32:05;2.10;;;1.90;;
21274;SDS011;36472;52.170;20.884;2023-05-10T14:34:34;3.17;;;2.38;;
21274;SDS011;36472;52.170;20.884;2023-05-10T14:37:03;2.58;;;2.08;;
21274;SDS011;36472;52.170;20.884;2023-05-10T14:39:33;4.80;;;2.30;;
21274;SDS011;36472;52.170;20.884;2023-05-10T14:42:03;4.45;;;2.38;;
21274;SDS011;36472;52.170;20.884;2023-05-10T14:44:32;6.30;;;2.65;;
21274;SDS011;36472;52.170;20.884;2023-05-10T14:47:02;2.83;;;2.30;;
21274;SDS011;36472;52.170;20.884;2023-05-10T14:49:31;3.85;;;2.30;;
21274;SDS011;36472;52.170;20.884;2023-05-10T14:52:00;3.08;;;1.90;;
21274;SDS011;36472;52.170;20.884;2023-05-10T14:54:30;3.63;;;2.25;;
21274;SDS011;36472;52.170;20.884;2023-05-10T14:57:01;5.85;;;2.35;;
21274;SDS011;36472;52.170;20.884;2023-05-10T14:59:30;3.92;;;2.38;;
21274;SDS011;36472;52.170;20.884;2023-05-10T15:02:00;3.22;;;2.05;;